Home > Products > Valid Products > TAF

000
FTUS45 KTWC 221100
TAFOLS
TAF
KOLS 221126Z 2212/2312 07005KT P6SM SKC
     FM221900 28008KT P6SM SCT250
     FM230300 10005KT P6SM SCT250=



000
FTUS45 KTWC 221100
TAFDUG
TAF
KDUG 221126Z 2212/2312 VRB05KT P6SM SKC
     FM221900 28007KT P6SM SCT250
     FM230300 33006KT P6SM SCT250=



000
FTUS45 KTWC 221100
TAFTUS
TAF
KTUS 221126Z 2212/2312 15006KT P6SM SKC
     FM222100 31006KT P6SM SCT250
     FM230600 15006KT P6SM SCT250=



000
FTUS45 KTWC 220500
TAFDUG
TAF
KDUG 220520Z 2206/2306 VRB05KT P6SM FEW060 SCT100
     FM220800 VRB05KT P6SM SKC
     FM221900 32006KT P6SM SCT200=



000
FTUS45 KTWC 220500
TAFTUS
TAF
KTUS 220520Z 2206/2306 14007KT P6SM SKC
     FM222000 30006KT P6SM SCT250
     FM230300 24005KT P6SM SCT250=



000
FTUS45 KTWC 220500
TAFOLS
TAF
KOLS 220520Z 2206/2306 VRB05KT P6SM SCT060 BKN120
     FM220800 VRB03KT P6SM SKC
     FM222000 28007KT P6SM SCT250=



000
FTUS45 KTWC 220500
TAFOLS
TAF
KOLS 220520Z 2206/2306 VRB05KT P6SM SCT060 BKN120
     FM220800 VRB03KT P6SM SKC
     FM222000 28007KT P6SM SCT250=



000
FTUS45 KTWC 220200 AAA
TAFOLS
TAF AMD
KOLS 220230Z 2203/2224 24010KT P6SM VCSH SCT040 BKN060 OVC100
      TEMPO 2203/2204 -SHRA BKN050
     FM220600 VRB05KT P6SM FEW080 SCT120
     FM222000 28007KT P6SM SCT250=



000
FTUS45 KTWC 220200 AAA
TAFOLS
TAF AMD
KOLS 220230Z 2203/2224 24010KT P6SM VCSH SCT040 BKN060 OVC100
      TEMPO 2203/2204 -SHRA BKN050
     FM220600 VRB05KT P6SM FEW080 SCT120
     FM222000 28007KT P6SM SCT250=



000
FTUS45 KTWC 212300
TAFOLS
TAF
KOLS 212320Z 2200/2224 21010KT P6SM VCSH SCT070 BKN110
      TEMPO 2200/2202 -TSRA SCT060CB
     FM220600 VRB05KT P6SM FEW080 SCT120
     FM222000 28007KT P6SM SCT250=



000
FTUS45 KTWC 212300
TAFDUG
TAF
KDUG 212320Z 2200/2224 21010G18KT P6SM SCT120 OVC160
     FM220300 VRB05KT P6SM VCSH FEW060 BKN100
     FM221500 32006KT P6SM SCT090 SCT200=



000
FTUS45 KTWC 212300
TAFOLS
TAF
KOLS 212320Z 2200/2224 21010KT P6SM VCSH SCT070 BKN110
      TEMPO 2200/2202 -TSRA SCT060CB
     FM220600 VRB05KT P6SM FEW080 SCT120
     FM222000 28007KT P6SM SCT250=



000
FTUS45 KTWC 212300
TAFTUS
TAF
KTUS 212320Z 2200/2224 27010G18KT P6SM VCSH SCT080 BKN120
     FM220300 35005KT P6SM SCT120
     FM220600 14006KT P6SM SKC
     FM222000 30006KT P6SM SCT250=



000
FTUS45 KTWC 211800 AAA
TAFOLS
TAF AMD
KOLS 211813Z 2118/2218 19014G20KT P6SM FEW080 SCT110 OVC160
     FM212300 21010KT P6SM VCSH SCT080 BKN120
      TEMPO 2200/2202 -TSRA SCT070CB
     FM220600 VRB05KT P6SM FEW080 SCT120=



000
FTUS45 KTWC 211700
TAFDUG
TAF
KDUG 211737Z 2118/2218 VRB05KT P6SM FEW120 OVC160
     FM212000 21010G18KT P6SM SCT120 OVC160
     FM220300 VRB05KT P6SM VCSH FEW060 BKN100
     FM221500 32006KT P6SM SCT090 SCT200=



000
FTUS45 KTWC 211700
TAFTUS
TAF
KTUS 211737Z 2118/2218 16007KT P6SM SCT130 OVC180
     FM212000 21008KT P6SM FEW080 SCT130 OVC180
     FM212200 27010G18KT P6SM SCT080 BKN130 BKN180
     FM220300 35005KT P6SM FEW130 SCT250
     FM220600 14006KT P6SM SCT250=



000
FTUS45 KTWC 211700
TAFOLS
TAF
KOLS 211737Z 2118/2218 21010KT P6SM SCT110 OVC160
     FM212000 21012G18KT P6SM FEW080 SCT110 OVC160
     FM212300 21010KT P6SM VCSH SCT080 BKN120
      TEMPO 2200/2202 -TSRA SCT070CB
     FM220600 VRB05KT P6SM FEW080 SCT120=



000
FTUS45 KTWC 211700
TAFOLS
TAF
KOLS 211737Z 2118/2218 21010KT P6SM SCT110 OVC160
     FM212000 21012G18KT P6SM FEW080 SCT110 OVC160
     FM212300 21010KT P6SM VCSH SCT080 BKN120
      TEMPO 2200/2202 -TSRA SCT070CB
     FM220600 VRB05KT P6SM FEW080 SCT120=



000
FTUS45 KTWC 211100
TAFOLS
TAF
KOLS 211122Z 2112/2212 VRB06KT P6SM SCT150 BKN250
     FM211900 21012G22KT P6SM FEW080 SCT150 BKN250
     FM212300 21010KT P6SM VCSH SCT080 BKN120
      TEMPO 2200/2202 -TSRA SCT070CB
     FM220600 VRB05KT P6SM FEW080 SCT120=



000
FTUS45 KTWC 211100
TAFTUS
TAF
KTUS 211122Z 2112/2212 14010KT P6SM SCT150 BKN250
     FM211900 21010KT P6SM FEW080 SCT130 BKN200
     FM212200 27010G18KT P6SM SCT090 BKN130
     FM220300 35005KT P6SM FEW130 SCT250=



000
FTUS45 KTWC 211100
TAFDUG
TAF
KDUG 211122Z 2112/2212 VRB04KT P6SM BKN250
     FM211600 17008KT P6SM FEW150 BKN250
     FM212000 21012G22KT P6SM SCT150 BKN250
     FM220300 VRB05KT P6SM VCSH FEW060 BKN100=



000
FTUS45 KTWC 211100
TAFOLS
TAF
KOLS 211122Z 2112/2212 VRB06KT P6SM SCT150 BKN250
     FM211900 21012G22KT P6SM FEW080 SCT150 BKN250
     FM212300 21010KT P6SM VCSH SCT080 BKN120
      TEMPO 2200/2202 -TSRA SCT070CB
     FM220600 VRB05KT P6SM FEW080 SCT120=



000
FTUS45 KTWC 210500
TAFTUS
TAF
KTUS 210538Z 2106/2206 16008KT P6SM FEW150 BKN250
     FM211900 28008KT P6SM FEW080 SCT130 BKN200
     FM212200 27010G18KT P6SM SCT090 BKN130
     FM220300 35005KT P6SM FEW130 SCT250=



000
FTUS45 KTWC 210500
TAFDUG
TAF
KDUG 210538Z 2106/2206 01004KT P6SM BKN250
     FM211600 17008KT P6SM FEW150 BKN250
     FM212000 21012G22KT P6SM SCT150 BKN250
     FM220300 15008KT P6SM VCSH FEW060 BKN100=



000
FTUS45 KTWC 210500
TAFOLS
TAF
KOLS 210538Z 2106/2206 09004KT P6SM BKN250
     FM211300 16007KT P6SM FEW150 BKN250
     FM211900 21012G22KT P6SM FEW080 SCT150 BKN250
     FM220000 18010KT P6SM VCTS SCT080CB BKN120
     FM220300 05005KT P6SM VCSH SCT080 BKN120=



000
FTUS45 KTWC 210500
TAFOLS
TAF
KOLS 210538Z 2106/2206 09004KT P6SM BKN250
     FM211300 16007KT P6SM FEW150 BKN250
     FM211900 21012G22KT P6SM FEW080 SCT150 BKN250
     FM220000 18010KT P6SM VCTS SCT080CB BKN120
     FM220300 05005KT P6SM VCSH SCT080 BKN120=



000
FTUS45 KTWC 202300
TAFOLS
TAF
KOLS 202339Z 2100/2124 25006KT P6SM FEW180 BKN250
     FM210300 VRB03KT P6SM BKN250
     FM211300 16007KT P6SM FEW150 BKN250
     FM211900 21010G19KT P6SM FEW080 SCT150 BKN250
     FM212200 21010G20KT P6SM VCSH SCT080 BKN120=



000
FTUS45 KTWC 202300
TAFDUG
TAF
KDUG 202339Z 2100/2124 23011G18KT P6SM FEW180 BKN250
     FM210300 34006KT P6SM BKN250
     FM211600 17008KT P6SM FEW150 BKN250
     FM212000 21010G20KT P6SM SCT150 BKN250=



000
FTUS45 KTWC 202300
TAFTUS
TAF
KTUS 202339Z 2100/2124 03006KT P6SM BKN250
     FM210600 14008KT P6SM FEW150 BKN250
     FM211900 28008KT P6SM FEW080 SCT130 BKN250
     FM212200 27010G18KT P6SM SCT090 BKN130=



000
FTUS45 KTWC 202300
TAFOLS
TAF
KOLS 202339Z 2100/2124 25006KT P6SM FEW180 BKN250
     FM210300 VRB03KT P6SM BKN250
     FM211300 16007KT P6SM FEW150 BKN250
     FM211900 21010G19KT P6SM FEW080 SCT150 BKN250
     FM212200 21010G20KT P6SM VCSH SCT080 BKN120=



000
FTUS45 KTWC 201700
TAFOLS
TAF
KOLS 201728Z 2018/2118 VRB03KT P6SM SKC
     FM201900 25006KT P6SM FEW250
     FM210200 VRB03KT P6SM FEW250
     FM211300 15007KT P6SM SCT100 BKN250=



000
FTUS45 KTWC 201700
TAFTUS
TAF
KTUS 201728Z 2018/2118 14008KT P6SM SKC
     FM201900 VRB05KT P6SM SKC
     FM202100 34006KT P6SM FEW250
     FM210300 14007KT P6SM FEW250
     FM211300 14008KT P6SM SCT100 BKN250=



000
FTUS45 KTWC 201700
TAFDUG
TAF
KDUG 201728Z 2018/2118 VRB04KT P6SM SKC
     FM202100 25008KT P6SM FEW250
     FM210200 VRB03KT P6SM FEW250
     FM211400 14006KT P6SM SCT100 BKN250=



000
FTUS45 KTWC 201700
TAFOLS
TAF
KOLS 201728Z 2018/2118 VRB03KT P6SM SKC
     FM201900 25006KT P6SM FEW250
     FM210200 VRB03KT P6SM FEW250
     FM211300 15007KT P6SM SCT100 BKN250=



000
FTUS45 KTWC 201100
TAFOLS
TAF
KOLS 201121Z 2012/2112 VRB03KT P6SM SKC
     FM201900 25007KT P6SM SCT250
     FM210200 VRB03KT P6SM SCT250=



000
FTUS45 KTWC 201100
TAFDUG
TAF
KDUG 201121Z 2012/2112 VRB04KT P6SM SKC
     FM202100 25008KT P6SM SCT250
     FM210200 32006KT P6SM SCT250=



000
FTUS45 KTWC 201100
TAFOLS
TAF
KOLS 201121Z 2012/2112 VRB03KT P6SM SKC
     FM201900 25007KT P6SM SCT250
     FM210200 VRB03KT P6SM SCT250=



000
FTUS45 KTWC 201100
TAFTUS
TAF
KTUS 201121Z 2012/2112 14008KT P6SM SKC
     FM201900 32007KT P6SM SCT250
     FM210300 23005KT P6SM SCT250=



000
FTUS45 KTWC 200500
TAFOLS
TAF
KOLS 200534Z 2006/2106 VRB03KT P6SM SKC
     FM201900 25007KT P6SM SCT250
     FM210200 VRB03KT P6SM SCT250=



000
FTUS45 KTWC 200500
TAFDUG
TAF
KDUG 200534Z 2006/2106 VRB04KT P6SM SKC
     FM201800 21005KT P6SM SKC
     FM202100 25008KT P6SM SCT250
     FM210200 32006KT P6SM SCT250=



000
FTUS45 KTWC 200500
TAFOLS
TAF
KOLS 200534Z 2006/2106 VRB03KT P6SM SKC
     FM201900 25007KT P6SM SCT250
     FM210200 VRB03KT P6SM SCT250=



000
FTUS45 KTWC 200500
TAFTUS
TAF
KTUS 200534Z 2006/2106 14008KT P6SM SKC
     FM201900 32007KT P6SM SCT250
     FM210300 23005KT P6SM SCT250=



000
FTUS45 KTWC 192300
TAFOLS
TAF
KOLS 192331Z 2000/2024 27009KT P6SM FEW250
     FM200200 VRB03KT P6SM SKC
     FM201900 25007KT P6SM SCT250=



000
FTUS45 KTWC 192300
TAFOLS
TAF
KOLS 192331Z 2000/2024 27009KT P6SM FEW250
     FM200200 VRB03KT P6SM SKC
     FM201900 25007KT P6SM SCT250=



000
FTUS45 KTWC 192300
TAFTUS
TAF
KTUS 192331Z 2000/2024 35008KT P6SM FEW250
     FM200200 23005KT P6SM SKC
     FM200800 14009KT P6SM SKC
     FM201900 32007KT P6SM SCT250=



000
FTUS45 KTWC 192300
TAFDUG
TAF
KDUG 192331Z 2000/2024 14005KT P6SM SCT250
     FM200400 VRB04KT P6SM SKC
     FM201800 21005KT P6SM SKC
     FM202100 24008KT P6SM SCT250=



000
FTUS45 KTWC 191700
TAFTUS
TAF
KTUS 191730Z 1918/2018 13007KT P6SM SCT250
     FM192100 32007KT P6SM SCT250
     FM200600 15007KT P6SM SKC=



000
FTUS45 KTWC 191700
TAFOLS
TAF
KOLS 191730Z 1918/2018 VRB03KT P6SM SCT250
     FM191900 24006KT P6SM SCT250
     FM200200 VRB03KT P6SM SKC=



000
FTUS45 KTWC 191700
TAFDUG
TAF
KDUG 191730Z 1918/2018 VRB04KT P6SM SCT250
     FM191900 21007KT P6SM SCT250
     FM200400 VRB04KT P6SM SKC=



000
FTUS45 KTWC 191700
TAFOLS
TAF
KOLS 191730Z 1918/2018 VRB03KT P6SM SCT250
     FM191900 24006KT P6SM SCT250
     FM200200 VRB03KT P6SM SKC=



    US Dept of Commerce
    National Oceanic and Atmospheric Administration
    National Weather Service
    1325 East West Highway
    Silver Spring, MD 20910
    Page Author: NWS Internet Services Team
Disclaimer
Information Quality
Credits
Glossary
Privacy Policy
Freedom of Information Act (FOIA)
About Us
Career Opportunities